Revere, Minnesota
Current Conditions -  °F | °C
As of 9:52 PM on Saturday 22 Nov 2014 (Local Time) from KTKC Reporting Station
Clear Clear  
Wind Chill: 35°   Ceiling: Unl
Heat Index: 43°   Visibility: 7mi
Dew Point: 40°   Wind: 21mph
Humidity: 89%   Direction: 210°SSW
Pressure: 29.44"   Gusts: 28mph
Location:  44.22°N, 95.36°W
Report Text: KTKC 230352Z AUTO 21018G24KT 7SM CLR 06/05 A2944 RMK AO2 T00630046
Loading
Personal Weather Stations






























Interactive Weather Map New forecast layout! Learn more

10-Day Weather Forecast

Advertisements
Track Severe Weather on mobile